createdAt,value
2023-02-19T00:00:24.724Z,98980.13
2023-02-19T00:01:28.025Z,98975.63
2023-02-19T00:02:29.299Z,98975.63
2023-02-19T00:03:30.567Z,98979.59
2023-02-19T00:04:31.811Z,98973.50
2023-02-19T00:05:34.884Z,98971.13
2023-02-19T00:06:36.589Z,98976.16
2023-02-19T00:07:37.832Z,98973.50
2023-02-19T00:08:39.232Z,98972.69
2023-02-19T00:09:40.458Z,98967.41
2023-02-19T00:10:41.707Z,98967.41
2023-02-19T00:11:43.480Z,98961.34
2023-02-19T00:12:44.697Z,98966.63
2023-02-19T00:13:47.524Z,98960.78
2023-02-19T00:14:48.784Z,98962.09
2023-02-19T00:15:50.070Z,98966.56
2023-02-19T00:16:51.372Z,98960.78
2023-02-19T00:17:52.592Z,98958.13
2023-02-19T00:18:54.428Z,98966.84
2023-02-19T00:19:55.644Z,98965.53
2023-02-19T00:20:56.851Z,98961.53
2023-02-19T00:21:58.110Z,98968.91
2023-02-19T00:22:59.366Z,98965.47
2023-02-19T00:24:02.010Z,98966.53
2023-02-19T00:25:03.245Z,98967.88
2023-02-19T00:26:17.300Z,98969.75
2023-02-19T00:27:19.635Z,98971.84
2023-02-19T00:28:21.184Z,98969.78
2023-02-19T00:29:22.727Z,98967.66
2023-02-19T00:30:23.969Z,98963.94
2023-02-19T00:31:35.478Z,98970.28
2023-02-19T00:32:36.919Z,98971.34
2023-02-19T00:33:38.260Z,98971.66
2023-02-19T00:34:39.512Z,98974.28
2023-02-19T00:35:40.930Z,98978.22
2023-02-19T00:36:42.492Z,98971.66
2023-02-19T00:37:43.797Z,98974.56
2023-02-19T00:38:45.978Z,98968.22
2023-02-19T00:39:47.269Z,98975.88
2023-02-19T00:40:48.526Z,98978.78
2023-02-19T00:41:50.215Z,98982.22
2023-02-19T00:42:51.789Z,98973.22
2023-02-19T00:43:56.070Z,98978.78
2023-02-19T00:44:57.368Z,98973.50
2023-02-19T00:45:58.670Z,98974.56
2023-02-19T00:46:59.925Z,98975.34
2023-02-19T00:48:01.216Z,98971.03
2023-02-19T00:49:03.945Z,98966.81
2023-02-19T00:50:05.435Z,98973.97
2023-02-19T00:51:06.731Z,98975.31
2023-02-19T00:52:07.940Z,98968.44
2023-02-19T00:53:09.197Z,98958.13
2023-02-19T00:54:11.033Z,98958.44
2023-02-19T00:55:12.587Z,98960.28
2023-02-19T00:56:14.163Z,98955.00
2023-02-19T00:57:15.560Z,98959.47
2023-02-19T00:58:16.835Z,98955.00
2023-02-19T00:59:18.096Z,98953.41
2023-02-19T01:00:19.540Z,98949.97
2023-02-19T01:01:20.809Z,98954.19
2023-02-19T01:02:22.111Z,98956.81
2023-02-19T01:03:24.817Z,98954.94
2023-02-19T01:04:26.147Z,98955.16
2023-02-19T01:05:27.427Z,98953.88
2023-02-19T01:06:28.648Z,98955.22
2023-02-19T01:07:29.879Z,98949.91
2023-02-19T01:08:31.718Z,98946.47
2023-02-19T01:09:35.067Z,98942.56
2023-02-19T01:10:36.309Z,98943.34
2023-02-19T01:11:38.075Z,98937.28
2023-02-19T01:12:39.603Z,98939.63
2023-02-19T01:13:41.436Z,98939.63
2023-02-19T01:14:42.673Z,98938.84
2023-02-19T01:15:44.062Z,98935.13
2023-02-19T01:16:45.349Z,98931.41
2023-02-19T01:17:46.624Z,98932.19
2023-02-19T01:18:48.312Z,98935.13
2023-02-19T01:19:49.733Z,98931.19
2023-02-19T01:20:51.022Z,98935.66
2023-02-19T01:21:52.345Z,98933.84
2023-02-19T01:22:53.635Z,98936.50
2023-02-19T01:23:55.014Z,98944.41
2023-02-19T01:24:57.184Z,98938.31
2023-02-19T01:25:58.473Z,98936.50
2023-02-19T01:26:59.732Z,98935.41
2023-02-19T01:28:00.984Z,98938.56
2023-02-19T01:29:03.663Z,98931.41
2023-02-19T01:30:05.812Z,98927.19
2023-02-19T01:31:08.777Z,98933.56
2023-02-19T01:32:10.287Z,98932.78
2023-02-19T01:33:11.678Z,98929.34
2023-02-19T01:34:13.017Z,98928.25
2023-02-19T01:35:14.565Z,98934.06
2023-02-19T01:36:16.063Z,98936.97
2023-02-19T01:37:17.295Z,98933.84
2023-02-19T01:38:18.554Z,98930.91
2023-02-19T01:39:19.807Z,98937.78
2023-02-19T01:40:21.076Z,98933.56
2023-02-19T01:41:23.724Z,98928.25
2023-02-19T01:42:24.986Z,98927.97
2023-02-19T01:43:26.295Z,98927.97
2023-02-19T01:44:27.487Z,98931.16
2023-02-19T01:45:30.142Z,98931.41
2023-02-19T01:46:32.500Z,98931.69
2023-02-19T01:47:34.085Z,98929.06
2023-02-19T01:48:37.553Z,98929.06
2023-02-19T01:49:44.594Z,98929.06
2023-02-19T01:50:51.233Z,98927.47
2023-02-19T01:51:58.967Z,98918.47
2023-02-19T01:53:02.749Z,98921.91
2023-02-19T01:54:06.900Z,98923.75
2023-02-19T01:55:11.016Z,98920.03
2023-02-19T01:56:15.691Z,98915.81
2023-02-19T01:57:21.120Z,98915.81
2023-02-19T01:58:23.172Z,98926.13
2023-02-19T01:59:24.627Z,98926.41
2023-02-19T02:00:26.493Z,98921.41
2023-02-19T02:01:28.018Z,98924.31
2023-02-19T02:02:29.498Z,98924.31
2023-02-19T02:03:31.247Z,98925.09
2023-02-19T02:04:33.071Z,98923.81
2023-02-19T02:05:53.341Z,98926.16
2023-02-19T02:06:57.498Z,98929.09
2023-02-19T02:07:59.977Z,98931.47
2023-02-19T02:09:01.510Z,98918.53
2023-02-19T02:10:03.476Z,98921.66
2023-02-19T02:11:04.999Z,98920.63
2023-02-19T02:12:06.351Z,98920.88
2023-02-19T02:13:07.586Z,98913.72
2023-02-19T02:14:08.843Z,98927.75
2023-02-19T02:15:10.509Z,98917.16
2023-02-19T02:16:11.766Z,98913.72
2023-02-19T02:17:26.318Z,98913.72
2023-02-19T02:18:41.506Z,98912.41
2023-02-19T02:20:00.295Z,98905.81
2023-02-19T02:21:05.840Z,98903.16
2023-02-19T02:22:25.602Z,98895.50
2023-02-19T02:23:45.913Z,98898.16
2023-02-19T02:25:02.492Z,98897.38
2023-02-19T02:26:15.816Z,98898.44
2023-02-19T02:27:22.980Z,98887.09
2023-02-19T02:28:27.168Z,98886.78
2023-02-19T02:29:34.428Z,98887.28
2023-02-19T02:30:39.403Z,98883.38
2023-02-19T02:32:03.561Z,98886.00
2023-02-19T02:33:11.608Z,98888.38
2023-02-19T02:34:18.839Z,98886.50
2023-02-19T02:35:29.772Z,98877.50
2023-02-19T02:36:33.470Z,98882.25
2023-02-19T02:37:36.871Z,98878.31
2023-02-19T02:38:40.457Z,98882.53
2023-02-19T02:39:42.575Z,98883.59
2023-02-19T02:40:44.726Z,98887.28
2023-02-19T02:41:50.367Z,98878.81
2023-02-19T02:42:51.917Z,98881.75
2023-02-19T02:43:53.166Z,98876.44
2023-02-19T02:44:55.663Z,98884.66
2023-02-19T02:45:57.100Z,98875.16
2023-02-19T02:47:06.518Z,98879.34
2023-02-19T02:48:16.839Z,98882.78
2023-02-19T02:49:21.715Z,98887.53
2023-02-19T02:50:30.186Z,98886.19
2023-02-19T02:51:36.457Z,98887.53
2023-02-19T02:52:42.626Z,98884.03
2023-02-19T02:53:46.871Z,98887.75
2023-02-19T02:54:48.279Z,98884.09
2023-02-19T02:55:52.600Z,98881.69
2023-02-19T02:56:55.923Z,98883.25
2023-02-19T02:57:57.401Z,98889.63
2023-02-19T02:59:01.199Z,98888.06
2023-02-19T03:00:02.637Z,98876.66
2023-02-19T03:01:06.941Z,98888.53
2023-02-19T03:02:14.773Z,98886.97
2023-02-19T03:03:18.055Z,98875.88
2023-02-19T03:04:28.301Z,98880.66
2023-02-19T03:05:29.736Z,98875.88
2023-02-19T03:06:33.378Z,98872.72
2023-02-19T03:07:39.418Z,98878.03
2023-02-19T03:08:45.986Z,98877.25
2023-02-19T03:09:49.630Z,98866.38
2023-02-19T03:10:59.884Z,98871.38
2023-02-19T03:12:03.168Z,98870.88
2023-02-19T03:13:07.408Z,98873.81
2023-02-19T03:14:16.102Z,98872.72
2023-02-19T03:15:19.380Z,98872.97
2023-02-19T03:16:24.494Z,98874.81
2023-02-19T03:17:44.368Z,98869.00
2023-02-19T03:18:48.044Z,98866.66
2023-02-19T03:19:52.659Z,98868.22
2023-02-19T03:20:57.058Z,98875.03
2023-02-19T03:22:05.137Z,98859.16
2023-02-19T03:23:07.694Z,98859.75
2023-02-19T03:24:11.241Z,98860.28
2023-02-19T03:25:14.932Z,98859.50
2023-02-19T03:26:17.407Z,98865.88
2023-02-19T03:27:28.097Z,98864.00
2023-02-19T03:28:32.275Z,98863.22
2023-02-19T03:29:35.663Z,98868.47
2023-02-19T03:30:41.511Z,98867.44
2023-02-19T03:31:43.585Z,98856.09
2023-02-19T03:33:07.848Z,98866.66
2023-02-19T03:34:12.082Z,98854.78
2023-02-19T03:35:16.352Z,98863.78
2023-02-19T03:36:18.549Z,98876.50
2023-02-19T03:37:24.831Z,98868.84
2023-02-19T03:38:31.600Z,98859.56
2023-02-19T03:39:33.087Z,98864.06
2023-02-19T03:40:44.921Z,98867.50
2023-02-19T03:41:54.376Z,98859.28
2023-02-19T03:43:03.917Z,98858.00
2023-02-19T03:44:08.169Z,98867.28
2023-02-19T03:45:18.536Z,98870.19
2023-02-19T03:46:34.888Z,98869.41
2023-02-19T03:47:48.990Z,98873.34
2023-02-19T03:48:52.972Z,98870.44
2023-02-19T03:50:04.807Z,98867.56
2023-02-19T03:51:14.860Z,98870.97
2023-02-19T03:52:18.558Z,98872.31
2023-02-19T03:53:44.180Z,98868.91
2023-02-19T03:55:02.933Z,98867.81
2023-02-19T03:56:05.386Z,98873.63
2023-02-19T03:57:35.104Z,98875.97
2023-02-19T03:58:41.881Z,98879.22
2023-02-19T03:59:53.918Z,98876.56
2023-02-19T04:00:58.437Z,98881.03
2023-02-19T04:02:01.930Z,98875.75
2023-02-19T04:03:15.930Z,98881.56
2023-02-19T04:04:21.152Z,98882.63
2023-02-19T04:05:44.231Z,98878.88
2023-02-19T04:06:48.322Z,98889.19
2023-02-19T04:07:51.609Z,98887.91
2023-02-19T04:09:00.040Z,98895.06
2023-02-19T04:10:01.889Z,98883.66
2023-02-19T04:11:04.164Z,98888.94
2023-02-19T04:12:10.213Z,98888.38
2023-02-19T04:13:15.564Z,98888.13
2023-02-19T04:14:26.125Z,98883.66
2023-02-19T04:15:29.057Z,98889.38
2023-02-19T04:16:30.880Z,98893.59
2023-02-19T04:17:35.793Z,98892.81
2023-02-19T04:18:39.423Z,98893.84
2023-02-19T04:19:42.399Z,98896.19
2023-02-19T04:20:44.860Z,98897.03
2023-02-19T04:21:46.842Z,98895.41
2023-02-19T04:22:48.503Z,98897.31
2023-02-19T04:23:50.124Z,98897.03
2023-02-19T04:24:53.188Z,98902.59
2023-02-19T04:25:56.644Z,98898.88
2023-02-19T04:26:58.190Z,98910.00
2023-02-19T04:27:59.429Z,98903.69
2023-02-19T04:29:01.147Z,98909.53
2023-02-19T04:30:02.545Z,98904.22
2023-02-19T04:31:04.010Z,98914.25
2023-02-19T04:32:05.407Z,98917.63
2023-02-19T04:33:06.695Z,98908.97
2023-02-19T04:34:07.990Z,98915.59
2023-02-19T04:35:09.287Z,98922.75
2023-02-19T04:36:10.969Z,98921.47
2023-02-19T04:37:12.294Z,98915.34
2023-02-19T04:38:13.502Z,98918.75
2023-02-19T04:39:14.806Z,98921.16
2023-02-19T04:40:16.199Z,98924.88
2023-02-19T04:41:17.399Z,98926.78
2023-02-19T04:42:18.661Z,98929.94
2023-02-19T04:43:20.051Z,98927.06
2023-02-19T04:44:21.397Z,98931.78
2023-02-19T04:45:22.684Z,98927.59
2023-02-19T04:46:24.116Z,98922.28
2023-02-19T04:47:25.345Z,98939.50
2023-02-19T04:48:26.574Z,98946.69
2023-02-19T04:49:27.865Z,98933.47
2023-02-19T04:50:29.255Z,98939.28
2023-02-19T04:51:30.470Z,98945.09
2023-02-19T04:52:31.794Z,98936.66
2023-02-19T04:53:33.400Z,98944.38
2023-02-19T04:54:34.762Z,98939.34
2023-02-19T04:55:36.689Z,98943.06
2023-02-19T04:56:37.877Z,98951.00
2023-02-19T04:57:39.143Z,98947.84
2023-02-19T04:58:40.592Z,98943.34
2023-02-19T04:59:41.852Z,98945.19
2023-02-19T05:00:43.082Z,98949.66
2023-02-19T05:01:44.461Z,98942.78
2023-02-19T05:02:45.689Z,98944.09
2023-02-19T05:03:46.981Z,98951.78
2023-02-19T05:04:48.222Z,98946.78
2023-02-19T05:05:49.492Z,98949.97
2023-02-19T05:06:50.704Z,98957.34
2023-02-19T05:07:51.951Z,98947.84
2023-02-19T05:08:53.205Z,98946.00
2023-02-19T05:09:54.466Z,98960.53
2023-02-19T05:10:59.758Z,98958.97
2023-02-19T05:12:00.996Z,98958.72
2023-02-19T05:13:02.222Z,98962.97
2023-02-19T05:14:03.458Z,98953.72
2023-02-19T05:15:04.807Z,98958.47
2023-02-19T05:16:07.347Z,98946.53
2023-02-19T05:17:08.625Z,98955.78
2023-02-19T05:18:09.880Z,98950.53
2023-02-19T05:19:11.741Z,98950.28
2023-02-19T05:20:13.042Z,98944.19
2023-02-19T05:21:14.975Z,98951.56
2023-02-19T05:22:16.340Z,98941.56
2023-02-19T05:23:18.005Z,98947.88
2023-02-19T05:24:19.455Z,98949.75
2023-02-19T05:25:20.717Z,98948.44
2023-02-19T05:26:23.016Z,98940.47
2023-02-19T05:27:24.251Z,98946.03
2023-02-19T05:28:25.597Z,98951.50
2023-02-19T05:29:26.876Z,98947.56
2023-02-19T05:30:28.164Z,98945.19
2023-02-19T05:31:29.616Z,98951.28
2023-02-19T05:32:30.997Z,98946.81
2023-02-19T05:33:32.468Z,98958.47
2023-02-19T05:34:33.703Z,98947.88
2023-02-19T05:35:39.646Z,98946.84
2023-02-19T05:36:40.929Z,98944.22
2023-02-19T05:37:42.133Z,98939.72
2023-02-19T05:38:43.355Z,98945.53
2023-02-19T05:39:44.615Z,98951.34
2023-02-19T05:40:46.278Z,98957.44
2023-02-19T05:41:47.554Z,98952.66
2023-02-19T05:42:48.795Z,98953.72
2023-02-19T05:43:50.019Z,98951.84
2023-02-19T05:44:51.281Z,98956.06
2023-02-19T05:45:52.483Z,98957.44
2023-02-19T05:46:53.710Z,98962.19
2023-02-19T05:47:54.925Z,98959.53
2023-02-19T05:48:56.516Z,98949.53
2023-02-19T05:49:57.765Z,98955.06
2023-02-19T05:51:09.656Z,98953.75
2023-02-19T05:52:11.089Z,98952.44
2023-02-19T05:53:12.334Z,98957.72
2023-02-19T05:54:13.573Z,98959.53
2023-02-19T05:55:17.565Z,98960.38
2023-02-19T05:56:33.009Z,98948.97
2023-02-19T05:57:41.357Z,98945.78
2023-02-19T05:58:43.755Z,98938.16
2023-02-19T05:59:45.143Z,98927.53
2023-02-19T06:00:46.429Z,98933.59
2023-02-19T06:01:48.611Z,98928.56
2023-02-19T06:02:49.916Z,98924.56
2023-02-19T06:03:51.548Z,98929.34
2023-02-19T06:04:52.869Z,98930.09
2023-02-19T06:05:54.141Z,98926.09
2023-02-19T06:06:55.446Z,98932.50
2023-02-19T06:07:56.716Z,98936.44
2023-02-19T06:08:58.413Z,98940.66
2023-02-19T06:09:59.725Z,98954.13
2023-02-19T06:11:00.985Z,98959.41
2023-02-19T06:12:02.244Z,98958.34
2023-02-19T06:13:03.492Z,98961.03
2023-02-19T06:14:05.259Z,98956.28
2023-02-19T06:15:06.659Z,98954.41
2023-02-19T06:16:08.524Z,98958.91
2023-02-19T06:17:09.759Z,98956.81
2023-02-19T06:18:11.033Z,98966.03
2023-02-19T06:19:12.300Z,98962.09
2023-02-19T06:20:13.741Z,98959.22
2023-02-19T06:21:15.496Z,98950.50
2023-02-19T06:22:16.891Z,98959.22
2023-02-19T06:23:18.194Z,98960.31
2023-02-19T06:24:19.437Z,98965.38
2023-02-19T06:25:20.781Z,98961.66
2023-02-19T06:26:23.313Z,98965.31
2023-02-19T06:27:24.514Z,98969.03
2023-02-19T06:28:25.776Z,98967.72
2023-02-19T06:29:27.082Z,98969.28
2023-02-19T06:30:28.388Z,98965.81
2023-02-19T06:31:29.858Z,98963.75
2023-02-19T06:32:31.216Z,98962.44
2023-02-19T06:33:33.120Z,98969.28
2023-02-19T06:34:34.714Z,98970.59
2023-02-19T06:35:36.074Z,98966.59
2023-02-19T06:36:37.283Z,98980.63
2023-02-19T06:37:38.517Z,98976.91
2023-02-19T06:38:39.739Z,98976.63
2023-02-19T06:39:41.024Z,98978.72
2023-02-19T06:40:42.307Z,98979.78
2023-02-19T06:41:43.561Z,98986.38
2023-02-19T06:42:44.792Z,98998.53
2023-02-19T06:43:46.049Z,98992.13
2023-02-19T06:44:47.257Z,98987.41
2023-02-19T06:45:48.505Z,98984.53
2023-02-19T06:46:49.788Z,98991.63
2023-02-19T06:47:51.065Z,98995.59
2023-02-19T06:48:52.281Z,98988.47
2023-02-19T06:49:53.544Z,99005.88
2023-02-19T06:50:54.954Z,99004.50
2023-02-19T06:51:56.197Z,99001.38
2023-02-19T06:52:57.589Z,98999.81
2023-02-19T06:53:59.208Z,99011.44
2023-02-19T06:55:00.409Z,99010.88
2023-02-19T06:56:03.085Z,99013.22
2023-02-19T06:57:04.313Z,99018.53
2023-02-19T06:58:06.046Z,99017.53
2023-02-19T06:59:11.243Z,99018.56
2023-02-19T07:00:12.691Z,99022.28
2023-02-19T07:01:14.114Z,99028.63
2023-02-19T07:02:15.492Z,99034.66
2023-02-19T07:03:16.736Z,99026.19
2023-02-19T07:04:18.061Z,99035.44
2023-02-19T07:05:19.296Z,99030.69
2023-02-19T07:06:21.725Z,99041.53
2023-02-19T07:07:22.949Z,99040.25
2023-02-19T07:08:24.225Z,99043.16
2023-02-19T07:09:25.530Z,99048.47
2023-02-19T07:10:26.788Z,99041.06
2023-02-19T07:11:32.458Z,99044.22
2023-02-19T07:12:33.754Z,99039.22
2023-02-19T07:13:35.106Z,99047.38
2023-02-19T07:14:36.479Z,99049.19
2023-02-19T07:15:37.875Z,99045.53
2023-02-19T07:16:39.124Z,99048.72
2023-02-19T07:17:40.422Z,99052.72
2023-02-19T07:18:41.721Z,99057.72
2023-02-19T07:19:42.960Z,99048.97
2023-02-19T07:20:44.193Z,99060.81
2023-02-19T07:21:45.444Z,99044.97
2023-02-19T07:22:46.655Z,99058.22
2023-02-19T07:23:47.921Z,99062.47
2023-02-19T07:24:49.159Z,99056.59
2023-02-19T07:25:50.396Z,99065.06
2023-02-19T07:26:51.662Z,99062.94
2023-02-19T07:27:52.884Z,99067.66
2023-02-19T07:28:54.088Z,99065.81
2023-02-19T07:29:55.473Z,99066.06
2023-02-19T07:31:03.505Z,99083.53
2023-02-19T07:32:04.806Z,99068.47
2023-02-19T07:33:06.796Z,99070.03
2023-02-19T07:34:09.313Z,99075.59
2023-02-19T07:35:11.160Z,99073.75
2023-02-19T07:36:12.866Z,99076.16
2023-02-19T07:37:14.111Z,99079.34
2023-02-19T07:38:22.381Z,99094.19
2023-02-19T07:39:23.623Z,99082.53
2023-02-19T07:40:24.823Z,99084.13
2023-02-19T07:41:26.992Z,99079.03
2023-02-19T07:42:31.262Z,99087.25
2023-02-19T07:43:33.792Z,99091.97
2023-02-19T07:44:34.973Z,99093.59
2023-02-19T07:45:36.278Z,99091.69
2023-02-19T07:46:37.541Z,99086.16
2023-02-19T07:47:38.810Z,99093.53
2023-02-19T07:48:41.006Z,99090.69
2023-02-19T07:49:42.262Z,99098.38
2023-02-19T07:50:51.084Z,99102.09
2023-02-19T07:51:52.352Z,99099.94
2023-02-19T07:52:53.600Z,99097.84
2023-02-19T07:53:54.824Z,99096.78
2023-02-19T07:54:56.119Z,99090.72
2023-02-19T07:56:01.349Z,99095.19
2023-02-19T07:57:02.584Z,99091.19
2023-02-19T07:58:06.112Z,99091.91
2023-02-19T07:59:07.575Z,99088.75
2023-02-19T08:00:09.077Z,99087.19
2023-02-19T08:01:15.392Z,99078.63
2023-02-19T08:02:17.594Z,99080.19
2023-02-19T08:03:18.904Z,99089.69
2023-02-19T08:04:20.193Z,99090.78
2023-02-19T08:05:21.403Z,99084.16
2023-02-19T08:06:22.601Z,99075.16
2023-02-19T08:07:23.811Z,99074.03
2023-02-19T08:08:25.013Z,99075.41
2023-02-19T08:09:26.315Z,99067.97
2023-02-19T08:10:27.859Z,99065.06
2023-02-19T08:11:29.145Z,99075.84
2023-02-19T08:12:30.389Z,99075.31
2023-02-19T08:13:31.759Z,99070.81
2023-02-19T08:14:33.124Z,99065.78
2023-02-19T08:15:34.442Z,99065.75
2023-02-19T08:16:43.086Z,99072.06
2023-02-19T08:17:44.760Z,99076.28
2023-02-19T08:18:46.748Z,99077.84
2023-02-19T08:19:47.996Z,99068.00
2023-02-19T08:20:49.259Z,99080.41
2023-02-19T08:21:50.598Z,99068.75
2023-02-19T08:22:51.868Z,99079.34
2023-02-19T08:23:53.075Z,99080.41
2023-02-19T08:24:54.275Z,99079.13
2023-02-19T08:25:59.085Z,99081.78
2023-02-19T08:27:00.380Z,99080.22
2023-02-19T08:28:01.784Z,99077.31
2023-02-19T08:29:03.680Z,99097.91
2023-02-19T08:30:05.142Z,99105.59
2023-02-19T08:31:07.490Z,99100.34
2023-02-19T08:32:08.906Z,99095.06
2023-02-19T08:33:10.546Z,99086.59
2023-02-19T08:34:11.817Z,99084.19
2023-02-19T08:35:13.136Z,99086.00
2023-02-19T08:36:14.428Z,99082.81
2023-02-19T08:37:15.773Z,99086.53
2023-02-19T08:38:17.069Z,99090.25
2023-02-19T08:39:20.132Z,99088.91
2023-02-19T08:40:22.443Z,99092.50
2023-02-19T08:41:23.676Z,99088.28
2023-02-19T08:42:24.902Z,99093.34
2023-02-19T08:43:26.112Z,99096.75
2023-02-19T08:44:27.384Z,99093.34
2023-02-19T08:45:28.626Z,99087.22
2023-02-19T08:46:29.931Z,99102.06
2023-02-19T08:47:31.556Z,99103.88
2023-02-19T08:48:33.000Z,99109.59
2023-02-19T08:49:34.238Z,99108.31
2023-02-19T08:50:35.853Z,99109.38
2023-02-19T08:51:37.111Z,99105.69
2023-02-19T08:52:38.416Z,99111.75
2023-02-19T08:53:40.193Z,99113.00
2023-02-19T08:54:41.397Z,99113.78
2023-02-19T08:55:42.848Z,99113.53
2023-02-19T08:56:44.128Z,99118.03
2023-02-19T08:57:49.736Z,99118.28
2023-02-19T08:58:51.712Z,99117.50
2023-02-19T08:59:52.928Z,99126.53
2023-02-19T09:00:54.356Z,99120.16
2023-02-19T09:01:55.660Z,99115.16
2023-02-19T09:02:57.614Z,99120.94
2023-02-19T09:03:58.943Z,99124.09
2023-02-19T09:05:00.293Z,99122.97
2023-02-19T09:06:01.566Z,99119.50
2023-02-19T09:07:03.295Z,99136.66
2023-02-19T09:08:04.585Z,99127.16
2023-02-19T09:09:05.838Z,99131.16
2023-02-19T09:10:07.403Z,99133.53
2023-02-19T09:11:08.714Z,99138.47
2023-02-19T09:12:11.945Z,99136.34
2023-02-19T09:13:13.169Z,99153.03
2023-02-19T09:14:14.396Z,99142.44
2023-02-19T09:15:15.709Z,99141.06
2023-02-19T09:16:17.085Z,99150.56
2023-02-19T09:17:18.310Z,99137.03
2023-02-19T09:18:23.460Z,99150.75
2023-02-19T09:19:24.786Z,99147.84
2023-02-19T09:20:26.057Z,99159.22
2023-02-19T09:21:27.314Z,99152.03
2023-02-19T09:22:28.527Z,99160.00
2023-02-19T09:23:30.218Z,99149.69
2023-02-19T09:24:31.767Z,99166.63
2023-02-19T09:25:33.005Z,99155.53
2023-02-19T09:26:34.248Z,99155.19
2023-02-19T09:27:35.512Z,99162.88
2023-02-19T09:28:37.136Z,99168.72
2023-02-19T09:29:38.392Z,99167.41
2023-02-19T09:30:39.857Z,99171.38
2023-02-19T09:31:41.570Z,99173.25
2023-02-19T09:32:42.834Z,99162.94
2023-02-19T09:33:48.041Z,99171.16
2023-02-19T09:34:49.612Z,99169.06
2023-02-19T09:35:50.877Z,99162.69
2023-02-19T09:36:52.588Z,99164.59
2023-02-19T09:37:53.856Z,99165.09
2023-02-19T09:38:55.167Z,99156.66
2023-02-19T09:39:56.511Z,99155.56
2023-02-19T09:40:58.684Z,99151.03
2023-02-19T09:42:09.107Z,99146.25
2023-02-19T09:43:15.615Z,99150.75
2023-02-19T09:44:28.930Z,99148.63
2023-02-19T09:45:30.169Z,99154.41
2023-02-19T09:46:38.725Z,99157.72
2023-02-19T09:47:39.978Z,99153.78
2023-02-19T09:48:41.882Z,99157.72
2023-02-19T09:49:44.081Z,99162.94
2023-02-19T09:50:47.226Z,99168.97
2023-02-19T09:51:51.414Z,99171.19
2023-02-19T09:52:57.670Z,99171.59
2023-02-19T09:53:59.496Z,99171.78
2023-02-19T09:55:02.625Z,99175.16
2023-02-19T09:56:04.232Z,99174.03
2023-02-19T09:57:07.149Z,99180.28
2023-02-19T09:58:18.779Z,99170.16
2023-02-19T09:59:28.425Z,99179.53
2023-02-19T10:00:32.721Z,99173.38
2023-02-19T10:01:38.228Z,99170.94
2023-02-19T10:02:39.521Z,99166.41
2023-02-19T10:03:43.647Z,99170.72
2023-02-19T10:04:45.794Z,99168.59
2023-02-19T10:05:47.539Z,99167.50
2023-02-19T10:06:49.273Z,99176.97
2023-02-19T10:07:52.156Z,99173.28
2023-02-19T10:08:55.833Z,99171.09
2023-02-19T10:10:02.293Z,99168.91
2023-02-19T10:11:04.658Z,99167.63
2023-02-19T10:12:13.427Z,99168.44
2023-02-19T10:13:18.587Z,99172.34
2023-02-19T10:14:28.837Z,99174.16
2023-02-19T10:15:34.501Z,99174.22
2023-02-19T10:16:39.372Z,99177.09
2023-02-19T10:17:40.603Z,99177.81
2023-02-19T10:18:43.111Z,99174.06
2023-02-19T10:19:44.415Z,99183.59
2023-02-19T10:20:46.480Z,99182.63
2023-02-19T10:21:47.758Z,99183.41
2023-02-19T10:22:49.002Z,99185.47
2023-02-19T10:23:52.507Z,99186.56
2023-02-19T10:24:55.336Z,99195.03
2023-02-19T10:25:57.576Z,99194.22
2023-02-19T10:26:58.792Z,99197.09
2023-02-19T10:28:00.754Z,99198.88
2023-02-19T10:29:02.628Z,99207.78
2023-02-19T10:30:05.821Z,99214.72
2023-02-19T10:31:15.793Z,99206.53
2023-02-19T10:32:18.915Z,99205.50
2023-02-19T10:33:20.635Z,99209.50
2023-02-19T10:34:22.581Z,99219.03
2023-02-19T10:35:23.816Z,99219.25
2023-02-19T10:36:40.004Z,99214.94
2023-02-19T10:37:42.766Z,99208.25
2023-02-19T10:38:47.556Z,99212.28
2023-02-19T10:39:50.044Z,99214.81
2023-02-19T10:40:57.162Z,99216.59
2023-02-19T10:41:58.453Z,99217.97
2023-02-19T10:43:01.868Z,99213.94
2023-02-19T10:44:05.614Z,99219.69
2023-02-19T10:45:17.163Z,99220.25
2023-02-19T10:46:21.677Z,99224.19
2023-02-19T10:47:23.971Z,99210.81
2023-02-19T10:48:28.648Z,99219.75
2023-02-19T10:49:33.141Z,99223.69
2023-02-19T10:50:36.247Z,99232.16
2023-02-19T10:51:38.893Z,99235.31
2023-02-19T10:52:40.208Z,99238.19
2023-02-19T10:53:45.832Z,99237.19
2023-02-19T10:54:51.888Z,99240.94
2023-02-19T10:56:06.773Z,99239.56
2023-02-19T10:57:20.200Z,99240.00
2023-02-19T10:58:25.495Z,99227.50
2023-02-19T10:59:28.382Z,99235.81
2023-02-19T11:00:30.340Z,99239.47
2023-02-19T11:01:31.750Z,99233.69
2023-02-19T11:02:33.070Z,99240.03
2023-02-19T11:03:34.345Z,99241.41
2023-02-19T11:04:35.699Z,99242.50
2023-02-19T11:05:37.621Z,99237.28
2023-02-19T11:06:39.588Z,99240.72
2023-02-19T11:07:51.952Z,99242.84
2023-02-19T11:09:00.752Z,99244.53
2023-02-19T11:10:03.362Z,99237.34
2023-02-19T11:11:04.688Z,99241.34
2023-02-19T11:12:08.399Z,99245.03
2023-02-19T11:13:14.795Z,99249.47
2023-02-19T11:14:19.981Z,99251.13
2023-02-19T11:15:29.200Z,99243.94
2023-02-19T11:16:59.682Z,99245.41
2023-02-19T11:18:04.711Z,99238.00
2023-02-19T11:19:06.096Z,99230.09
2023-02-19T11:20:13.810Z,99241.88
2023-02-19T11:21:29.389Z,99236.28
2023-02-19T11:22:35.362Z,99237.28
2023-02-19T11:23:36.630Z,99236.41
2023-02-19T11:24:38.271Z,99232.19
2023-02-19T11:25:44.495Z,99238.28
2023-02-19T11:26:45.716Z,99230.56
2023-02-19T11:28:13.157Z,99234.69
2023-02-19T11:29:19.750Z,99226.66
2023-02-19T11:30:33.870Z,99222.06
2023-02-19T11:31:36.761Z,99225.13
2023-02-19T11:32:38.124Z,99230.38
2023-02-19T11:33:43.729Z,99230.09
2023-02-19T11:34:45.351Z,99225.28
2023-02-19T11:35:47.118Z,99227.66
2023-02-19T11:37:07.042Z,99225.72
2023-02-19T11:38:10.107Z,99228.94
2023-02-19T11:39:17.481Z,99230.59
2023-02-19T11:40:19.010Z,99225.50
2023-02-19T11:41:29.328Z,99236.31
2023-02-19T11:42:39.407Z,99238.19
2023-02-19T11:43:59.555Z,99239.63
2023-02-19T11:45:09.431Z,99245.94
2023-02-19T11:46:28.781Z,99249.16
2023-02-19T11:47:30.135Z,99261.16
2023-02-19T11:48:35.176Z,99252.03
2023-02-19T11:49:46.096Z,99257.13
2023-02-19T11:50:50.227Z,99262.75
2023-02-19T11:52:00.953Z,99265.09
2023-02-19T11:53:02.164Z,99264.25
2023-02-19T11:54:26.596Z,99267.41
2023-02-19T11:55:41.480Z,99260.56
2023-02-19T11:56:43.537Z,99259.78
2023-02-19T11:57:51.699Z,99265.09
2023-02-19T11:58:52.916Z,99271.50
2023-02-19T11:59:56.912Z,99270.78
2023-02-19T12:01:21.448Z,99271.00
2023-02-19T12:02:33.259Z,99262.44
2023-02-19T12:03:43.360Z,99267.84
2023-02-19T12:04:56.621Z,99271.78
2023-02-19T12:06:16.580Z,99265.47
2023-02-19T12:07:17.928Z,99263.59
2023-02-19T12:08:41.233Z,99255.06
2023-02-19T12:10:01.034Z,99256.44
2023-02-19T12:11:05.439Z,99243.28
2023-02-19T12:12:11.871Z,99243.22
2023-02-19T12:13:41.683Z,99240.03
2023-02-19T12:15:01.804Z,99247.97
2023-02-19T12:16:25.721Z,99252.03
2023-02-19T12:17:45.670Z,99246.19
2023-02-19T12:19:07.175Z,99246.50
2023-02-19T12:20:22.736Z,99241.41
2023-02-19T12:21:23.960Z,99234.25
2023-02-19T12:22:30.144Z,99229.50
2023-02-19T12:23:34.293Z,99226.34
2023-02-19T12:24:54.091Z,99224.78
2023-02-19T12:25:55.341Z,99217.69
2023-02-19T12:27:09.700Z,99221.13
2023-02-19T12:28:49.762Z,99225.72
2023-02-19T12:30:09.503Z,99229.41